Homestown, Missouri
Current Conditions -  °F | °C
As of 5:53 PM on Monday 20 Oct 2014 (Local Time) from KHKA Reporting Station
Clear Clear  
Wind Chill: 71°   Ceiling: Unl
Heat Index: 71°   Visibility: 10mi
Dew Point: 55°   Wind: 6mph
Humidity: 57%   Direction: 230°SW
Pressure: 29.98"   Gusts: NA
Location:  36.3524°N, 89.8327°W
Report Text: KHKA 202253Z AUTO 23005KT 10SM CLR 22/13 A2998 RMK AO2 SLP151 T02170128
Loading
Personal Weather Stations






























Interactive Weather Map New forecast layout! Learn more

10-Day Weather Forecast

Advertisements
Track Severe Weather on mobile